Reedurban, Ohio
Current Conditions -  °F | °C
As of 9:51 PM on Wednesday 22 Oct 2014 (Local Time) from KCAK Reporting Station
Scattered Clouds Scattered Clouds  
Wind Chill: 38°   Ceiling: Unl
Heat Index: 42°   Visibility: 10mi
Dew Point: 38°   Wind: 6mph
Humidity: 85%   Direction: 320°NW
Pressure: 30.22"   Gusts: NA
Location:  40.7898°N, 81.4236°W
Report Text: KCAK 230151Z 32005KT 10SM SCT040 06/03 A3022 RMK AO2 SLP238 T00560033 $
Loading
Personal Weather Stations






























Interactive Weather Map
Tropical Storm Tracking
New forecast layout! Learn more

10-Day Weather Forecast

Advertisements
Track Severe Weather on mobile